CheckWX is a tool to help pilots better visualize weather data.  It is not intended as a substitute for an official pre-flight weather briefing.

03:22:24 UTC

KCIR METAR
Cairo Regional Airport
Cairo, Illinois, USA
Current

27 mins ago

KCIR 210255Z AUTO 35013G18KT 10SM CLR M03/M09 A3068 RMK AO2 6//// T10261094
Observed
Feb-21 @ 02:55 UTC
Wind
  • 350° at 13 KTS
  • Gusting to 18 KTS
Visibility
10 SM
Flight Rules
VFR
Cloud Levels
  • Clear skies
Temperature
-3°C / 27°F
Dewpoint
-9°C / 16°F
Humidity
64%
Altimeter
30.68" Hg
Pressure
1038.92 hPa
Previous

47 mins ago

KCIR 210235Z AUTO 36011G16KT 10SM CLR M02/M09 A3067 RMK AO2 T10251094
Observed
Feb-21 @ 02:35 UTC
Wind
  • 360° at 11 KTS
  • Gusting to 16 KTS
Visibility
10 SM
Flight Rules
VFR
Cloud Levels
  • Clear skies
Temperature
-3°C / 27°F
Dewpoint
-9°C / 16°F
Humidity
64%
Altimeter
30.67" Hg
Pressure
1038.62 hPa
Previous

1 hour ago

KCIR 210215Z AUTO 36013KT 10SM CLR M02/M09 A3067 RMK AO2 T10221091
Observed
Feb-21 @ 02:15 UTC
Wind
  • 360° at 13 KTS
Visibility
10 SM
Flight Rules
VFR
Cloud Levels
  • Clear skies
Temperature
-2°C / 28°F
Dewpoint
-9°C / 16°F
Humidity
59%
Altimeter
30.67" Hg
Pressure
1038.62 hPa